createdAt,value
2022-10-11T00:02:07.765Z,13.20
2022-10-11T00:04:34.583Z,13.30
2022-10-11T00:07:01.422Z,13.30
2022-10-11T00:09:28.424Z,13.20
2022-10-11T00:11:58.620Z,13.20
2022-10-11T00:14:27.077Z,13.20
2022-10-11T00:16:55.461Z,13.20
2022-10-11T00:19:22.795Z,13.10
2022-10-11T00:21:49.729Z,13.10
2022-10-11T00:24:17.114Z,13.10
2022-10-11T00:26:46.728Z,13.10
2022-10-11T00:29:14.461Z,13.10
2022-10-11T00:31:41.446Z,13.00
2022-10-11T00:34:08.836Z,13.00
2022-10-11T00:36:35.808Z,13.00
2022-10-11T00:39:03.617Z,13.00
2022-10-11T00:41:30.792Z,13.00
2022-10-11T00:44:19.055Z,12.90
2022-10-11T00:47:09.116Z,12.90
2022-10-11T00:49:38.183Z,12.90
2022-10-11T00:52:29.131Z,12.90
2022-10-11T00:54:59.193Z,12.80
2022-10-11T00:57:31.650Z,12.80
2022-10-11T00:59:59.377Z,12.80
2022-10-11T01:02:26.759Z,12.80
2022-10-11T01:05:11.355Z,12.70
2022-10-11T01:07:42.226Z,12.80
2022-10-11T01:10:09.473Z,12.70
2022-10-11T01:12:39.346Z,12.70
2022-10-11T01:15:48.189Z,12.70
2022-10-11T01:18:30.801Z,12.70
2022-10-11T01:21:08.944Z,12.70
2022-10-11T01:23:53.952Z,12.70
2022-10-11T01:26:51.495Z,12.70
2022-10-11T01:29:51.800Z,12.70
2022-10-11T01:32:35.579Z,12.70
2022-10-11T01:35:24.845Z,12.70
2022-10-11T01:38:23.942Z,12.70
2022-10-11T01:40:58.444Z,12.70
2022-10-11T01:43:27.136Z,12.80
2022-10-11T01:45:56.983Z,12.70
2022-10-11T01:48:24.114Z,12.80
2022-10-11T01:50:56.182Z,12.70
2022-10-11T01:53:37.563Z,12.70
2022-10-11T01:56:30.130Z,12.70
2022-10-11T01:59:06.403Z,12.70
2022-10-11T02:01:57.137Z,12.70
2022-10-11T02:04:51.357Z,12.70
2022-10-11T02:07:21.308Z,12.60
2022-10-11T02:10:00.280Z,12.70
2022-10-11T02:12:33.953Z,12.60
2022-10-11T02:15:06.778Z,12.60
2022-10-11T02:17:47.461Z,12.60
2022-10-11T02:20:19.591Z,12.60
2022-10-11T02:22:49.575Z,12.60
2022-10-11T02:25:27.194Z,12.60
2022-10-11T02:27:58.008Z,12.60
2022-10-11T02:30:25.018Z,12.60
2022-10-11T02:32:53.880Z,12.50
2022-10-11T02:35:24.335Z,12.60
2022-10-11T02:38:05.556Z,12.60
2022-10-11T02:40:42.704Z,12.50
2022-10-11T02:43:24.046Z,12.50
2022-10-11T02:45:58.601Z,12.50
2022-10-11T02:48:28.471Z,12.50
2022-10-11T02:50:59.018Z,12.50
2022-10-11T02:53:27.125Z,12.50
2022-10-11T02:55:55.003Z,12.50
2022-10-11T02:58:23.081Z,12.40
2022-10-11T03:00:50.055Z,12.40
2022-10-11T03:03:16.905Z,12.40
2022-10-11T03:05:44.644Z,12.40
2022-10-11T03:08:13.802Z,12.40
2022-10-11T03:10:41.386Z,12.40
2022-10-11T03:13:08.624Z,12.30
2022-10-11T03:15:35.527Z,12.30
2022-10-11T03:18:02.495Z,12.30
2022-10-11T03:20:29.309Z,12.30
2022-10-11T03:22:56.461Z,12.30
2022-10-11T03:25:23.341Z,12.30
2022-10-11T03:27:50.492Z,12.30
2022-10-11T03:30:18.438Z,12.30
2022-10-11T03:32:45.775Z,12.20
2022-10-11T03:35:12.763Z,12.20
2022-10-11T03:37:39.577Z,12.20
2022-10-11T03:40:08.401Z,12.20
2022-10-11T03:42:36.159Z,12.20
2022-10-11T03:45:07.973Z,12.20
2022-10-11T03:47:36.283Z,12.20
2022-10-11T03:50:04.955Z,12.20
2022-10-11T03:52:31.965Z,12.10
2022-10-11T03:54:59.205Z,12.10
2022-10-11T03:57:26.051Z,12.10
2022-10-11T03:59:52.914Z,12.10
2022-10-11T04:02:19.930Z,12.10
2022-10-11T04:04:47.189Z,12.10
2022-10-11T04:07:14.059Z,12.10
2022-10-11T04:09:41.223Z,12.00
2022-10-11T04:12:08.420Z,12.00
2022-10-11T04:14:35.304Z,12.00
2022-10-11T04:17:02.177Z,11.90
2022-10-11T04:19:29.064Z,12.00
2022-10-11T04:21:56.228Z,11.90
2022-10-11T04:24:23.124Z,11.90
2022-10-11T04:26:50.052Z,11.90
2022-10-11T04:29:16.886Z,11.90
2022-10-11T04:31:43.751Z,11.90
2022-10-11T04:34:10.613Z,11.90
2022-10-11T04:36:39.026Z,11.90
2022-10-11T04:39:07.011Z,11.80
2022-10-11T04:41:34.492Z,11.80
2022-10-11T04:44:02.586Z,11.80
2022-10-11T04:46:29.926Z,11.80
2022-10-11T04:48:56.995Z,11.80
2022-10-11T04:51:24.987Z,11.80
2022-10-11T04:53:51.904Z,11.70
2022-10-11T04:56:18.811Z,11.70
2022-10-11T04:58:48.139Z,11.70
2022-10-11T05:01:15.774Z,11.70
2022-10-11T05:03:42.647Z,11.70
2022-10-11T05:06:10.001Z,11.70
2022-10-11T05:08:37.769Z,11.60
2022-10-11T05:11:07.466Z,11.60
2022-10-11T05:13:36.148Z,11.60
2022-10-11T05:16:08.436Z,11.60
2022-10-11T05:18:37.654Z,11.50
2022-10-11T05:21:06.507Z,11.50
2022-10-11T05:23:34.688Z,11.50
2022-10-11T05:26:02.636Z,11.50
2022-10-11T05:28:29.756Z,11.50
2022-10-11T05:30:56.597Z,11.50
2022-10-11T05:33:23.617Z,11.50
2022-10-11T05:35:50.556Z,11.50
2022-10-11T05:38:17.768Z,11.50
2022-10-11T05:40:44.790Z,11.40
2022-10-11T05:43:11.892Z,11.40
2022-10-11T05:45:40.869Z,11.40
2022-10-11T05:48:08.205Z,11.40
2022-10-11T05:50:36.353Z,11.40
2022-10-11T05:53:03.675Z,11.30
2022-10-11T05:55:30.630Z,11.30
2022-10-11T05:57:57.834Z,11.30
2022-10-11T06:00:24.948Z,11.30
2022-10-11T06:02:52.445Z,11.30
2022-10-11T06:05:19.537Z,11.30
2022-10-11T06:07:46.455Z,11.30
2022-10-11T06:10:13.487Z,11.30
2022-10-11T06:12:40.529Z,11.30
2022-10-11T06:15:08.735Z,11.30
2022-10-11T06:17:35.609Z,11.30
2022-10-11T06:20:02.417Z,11.30
2022-10-11T06:22:29.377Z,11.30
2022-10-11T06:24:56.445Z,11.40
2022-10-11T06:27:23.625Z,11.40
2022-10-11T06:29:50.643Z,11.40
2022-10-11T06:32:17.558Z,11.40
2022-10-11T06:34:44.776Z,11.50
2022-10-11T06:37:11.711Z,11.50
2022-10-11T06:39:38.743Z,11.50
2022-10-11T06:42:05.661Z,11.50
2022-10-11T06:44:32.960Z,11.50
2022-10-11T06:46:59.896Z,11.60
2022-10-11T06:49:26.730Z,11.70
2022-10-11T06:51:53.554Z,11.70
2022-10-11T06:54:20.508Z,11.70
2022-10-11T06:56:47.630Z,11.80
2022-10-11T06:59:15.029Z,11.90
2022-10-11T07:01:42.524Z,12.00
2022-10-11T07:04:09.626Z,12.10
2022-10-11T07:06:39.286Z,12.20
2022-10-11T07:09:06.488Z,12.30
2022-10-11T07:11:33.532Z,12.50
2022-10-11T07:14:04.366Z,12.70
2022-10-11T07:16:31.254Z,13.00
2022-10-11T07:19:01.302Z,13.20
2022-10-11T07:21:30.252Z,13.40
2022-10-11T07:23:57.051Z,13.70
2022-10-11T07:26:23.949Z,14.00
2022-10-11T07:28:51.529Z,14.10
2022-10-11T07:31:21.958Z,14.40
2022-10-11T07:33:49.590Z,14.50
2022-10-11T07:36:16.806Z,14.70
2022-10-11T07:38:44.840Z,14.80
2022-10-11T07:41:12.439Z,14.90
2022-10-11T07:43:40.039Z,15.00
2022-10-11T07:46:07.354Z,15.10
2022-10-11T07:48:35.705Z,15.20
2022-10-11T07:51:08.687Z,15.30
2022-10-11T07:53:43.771Z,15.30
2022-10-11T07:56:15.319Z,15.30
2022-10-11T07:58:42.684Z,15.30
2022-10-11T08:01:11.124Z,15.20
2022-10-11T08:03:38.785Z,15.20
2022-10-11T08:06:08.314Z,15.20
2022-10-11T08:08:37.003Z,15.20
2022-10-11T08:11:04.289Z,15.20
2022-10-11T08:13:31.387Z,15.20
2022-10-11T08:15:58.502Z,15.30
2022-10-11T08:18:25.747Z,15.50
2022-10-11T08:20:52.920Z,15.60
2022-10-11T08:23:19.971Z,15.70
2022-10-11T08:25:48.295Z,15.90
2022-10-11T08:28:18.196Z,16.00
2022-10-11T08:30:53.298Z,16.10
2022-10-11T08:33:22.206Z,16.30
2022-10-11T08:35:50.506Z,16.40
2022-10-11T08:38:18.066Z,16.50
2022-10-11T08:40:58.563Z,16.60
2022-10-11T08:43:46.528Z,16.70
2022-10-11T08:46:15.922Z,16.70
2022-10-11T08:48:46.338Z,16.80
2022-10-11T08:51:25.403Z,16.80
2022-10-11T08:54:04.724Z,16.90
2022-10-11T08:56:38.763Z,17.00
2022-10-11T08:59:11.749Z,17.00
2022-10-11T09:01:54.435Z,17.20
2022-10-11T09:04:21.607Z,17.50
2022-10-11T09:07:25.978Z,17.90
2022-10-11T09:10:03.520Z,18.30
2022-10-11T09:13:00.790Z,18.70
2022-10-11T09:16:00.030Z,19.10
2022-10-11T09:18:42.804Z,19.50
2022-10-11T09:21:24.931Z,19.90
2022-10-11T09:24:28.299Z,20.30
2022-10-11T09:27:02.453Z,20.60
2022-10-11T09:29:29.336Z,20.90
2022-10-11T09:31:58.304Z,21.10
2022-10-11T09:34:32.269Z,21.40
2022-10-11T09:37:53.268Z,21.60
2022-10-11T09:40:25.438Z,21.70
2022-10-11T09:42:52.359Z,22.00
2022-10-11T09:45:21.455Z,22.10
2022-10-11T09:47:50.732Z,22.30
2022-10-11T09:50:25.847Z,22.40
2022-10-11T09:52:59.848Z,22.60
2022-10-11T09:55:53.916Z,22.70
2022-10-11T09:58:33.195Z,22.80
2022-10-11T10:01:11.361Z,22.90
2022-10-11T10:03:43.371Z,23.10
2022-10-11T10:06:16.286Z,23.20
2022-10-11T10:08:45.435Z,23.30
2022-10-11T10:11:12.529Z,23.40
2022-10-11T10:13:39.312Z,23.60
2022-10-11T10:16:11.562Z,23.60
2022-10-11T10:18:51.501Z,23.60
2022-10-11T10:21:44.537Z,23.60
2022-10-11T10:24:34.847Z,23.60
2022-10-11T10:27:06.333Z,23.70
2022-10-11T10:29:33.655Z,23.70
2022-10-11T10:32:28.940Z,23.80
2022-10-11T10:35:17.429Z,23.90
2022-10-11T10:37:53.505Z,23.90
2022-10-11T10:40:32.355Z,23.90
2022-10-11T10:42:59.256Z,23.80
2022-10-11T10:45:50.164Z,23.90
2022-10-11T10:52:11.400Z,24.10
2022-10-11T10:54:47.204Z,24.10
2022-10-11T10:57:23.407Z,24.20
2022-10-11T11:00:05.507Z,24.30
2022-10-11T11:02:41.106Z,24.30
2022-10-11T11:05:38.816Z,24.20
2022-10-11T11:08:43.866Z,24.10
2022-10-11T11:11:29.682Z,24.00
2022-10-11T11:14:15.348Z,23.80
2022-10-11T11:16:55.811Z,23.60
2022-10-11T11:19:35.004Z,23.40
2022-10-11T11:22:23.639Z,23.20
2022-10-11T11:25:14.657Z,23.00
2022-10-11T11:28:14.007Z,22.80
2022-10-11T11:31:05.248Z,22.70
2022-10-11T11:33:38.368Z,22.50
2022-10-11T11:36:15.806Z,22.40
2022-10-11T11:38:42.823Z,22.20
2022-10-11T11:41:23.903Z,22.10
2022-10-11T11:44:04.864Z,22.00
2022-10-11T11:46:41.804Z,21.90
2022-10-11T11:49:26.631Z,21.80
2022-10-11T11:51:54.856Z,21.70
2022-10-11T11:54:48.858Z,21.60
2022-10-11T11:57:38.781Z,21.60
2022-10-11T12:00:15.515Z,21.60
2022-10-11T12:02:49.198Z,21.60
2022-10-11T12:05:20.153Z,21.60
2022-10-11T12:08:08.585Z,21.50
2022-10-11T12:10:37.302Z,21.40
2022-10-11T12:13:19.471Z,21.40
2022-10-11T12:16:11.813Z,21.40
2022-10-11T12:18:58.961Z,21.40
2022-10-11T12:21:36.906Z,21.40
2022-10-11T12:24:32.700Z,21.40
2022-10-11T12:27:19.552Z,21.40
2022-10-11T12:29:50.096Z,21.30
2022-10-11T12:32:29.046Z,21.20
2022-10-11T12:35:47.315Z,21.20
2022-10-11T12:38:24.047Z,21.10
2022-10-11T12:41:10.618Z,21.10
2022-10-11T12:43:49.724Z,21.00
2022-10-11T12:46:29.061Z,21.00
2022-10-11T12:49:16.219Z,20.90
2022-10-11T12:51:58.329Z,20.90
2022-10-11T12:54:58.636Z,20.80
2022-10-11T12:58:04.362Z,20.80
2022-10-11T13:00:40.968Z,20.70
2022-10-11T13:03:32.538Z,20.70
2022-10-11T13:06:09.880Z,20.70
2022-10-11T13:08:42.329Z,20.60
2022-10-11T13:11:11.780Z,20.50
2022-10-11T13:13:48.410Z,20.50
2022-10-11T13:16:20.315Z,20.50
2022-10-11T13:18:50.977Z,20.50
2022-10-11T13:21:29.783Z,20.50
2022-10-11T13:24:17.805Z,20.60
2022-10-11T13:26:47.411Z,20.60
2022-10-11T13:29:16.578Z,20.60
2022-10-11T13:31:46.857Z,20.60
2022-10-11T13:34:14.585Z,20.60
2022-10-11T13:36:42.328Z,20.70
2022-10-11T13:39:31.851Z,20.60
2022-10-11T13:42:00.214Z,20.70
2022-10-11T13:44:27.643Z,20.60
2022-10-11T13:46:54.843Z,20.70
2022-10-11T13:49:37.219Z,20.70
2022-10-11T13:52:19.966Z,20.80
2022-10-11T13:54:58.019Z,20.80
2022-10-11T13:57:36.704Z,20.80
2022-10-11T14:00:15.489Z,20.80
2022-10-11T14:03:01.356Z,20.80
2022-10-11T14:05:33.891Z,20.80
2022-10-11T14:08:23.746Z,20.80
2022-10-11T14:10:56.734Z,20.80
2022-10-11T14:13:38.280Z,20.70
2022-10-11T14:16:11.262Z,20.80
2022-10-11T14:18:42.969Z,20.80
2022-10-11T14:21:28.668Z,20.80
2022-10-11T14:24:05.009Z,20.80
2022-10-11T14:26:35.950Z,20.80
2022-10-11T14:29:13.879Z,20.80
2022-10-11T14:31:43.911Z,20.70
2022-10-11T14:34:22.127Z,20.70
2022-10-11T14:36:50.216Z,20.70
2022-10-11T14:39:23.546Z,20.70
2022-10-11T14:41:51.589Z,20.70
2022-10-11T14:44:19.811Z,20.60
2022-10-11T14:46:48.291Z,20.70
2022-10-11T14:49:18.465Z,20.70
2022-10-11T14:51:47.660Z,20.60
2022-10-11T14:54:16.318Z,20.70
2022-10-11T14:56:43.227Z,20.60
2022-10-11T14:59:14.378Z,20.60
2022-10-11T15:01:41.676Z,20.60
2022-10-11T15:04:08.719Z,20.60
2022-10-11T15:06:39.047Z,20.50
2022-10-11T15:09:07.546Z,20.50
2022-10-11T15:11:36.375Z,20.50
2022-10-11T15:14:03.879Z,20.40
2022-10-11T15:16:31.025Z,20.40
2022-10-11T15:18:58.078Z,20.40
2022-10-11T15:21:27.188Z,20.30
2022-10-11T15:23:55.457Z,20.30
2022-10-11T15:26:25.299Z,20.20
2022-10-11T15:28:53.369Z,20.20
2022-10-11T15:31:20.529Z,20.10
2022-10-11T15:33:47.824Z,20.10
2022-10-11T15:36:18.028Z,20.00
2022-10-11T15:38:46.460Z,19.90
2022-10-11T15:41:15.743Z,19.90
2022-10-11T15:43:44.403Z,19.80
2022-10-11T15:46:22.516Z,19.70
2022-10-11T15:48:50.826Z,19.70
2022-10-11T15:51:18.148Z,19.70
2022-10-11T15:53:45.325Z,19.60
2022-10-11T15:56:18.901Z,19.60
2022-10-11T15:58:45.822Z,19.60
2022-10-11T16:01:16.057Z,19.50
2022-10-11T16:03:43.389Z,19.50
2022-10-11T16:06:11.248Z,19.50
2022-10-11T16:08:38.895Z,19.50
2022-10-11T16:11:07.238Z,19.40
2022-10-11T16:13:34.757Z,19.40
2022-10-11T16:16:03.796Z,19.30
2022-10-11T16:18:35.023Z,19.30
2022-10-11T16:21:06.618Z,19.20
2022-10-11T16:23:33.833Z,19.20
2022-10-11T16:26:04.511Z,19.10
2022-10-11T16:28:32.034Z,19.10
2022-10-11T16:30:59.026Z,19.00
2022-10-11T16:33:26.737Z,19.00
2022-10-11T16:35:53.611Z,19.00
2022-10-11T16:38:20.453Z,18.90
2022-10-11T16:40:47.347Z,18.90
2022-10-11T16:43:14.273Z,18.80
2022-10-11T16:45:41.114Z,18.80
2022-10-11T16:48:07.967Z,18.70
2022-10-11T16:50:39.320Z,18.60
2022-10-11T16:53:06.914Z,18.60
2022-10-11T16:55:33.751Z,18.50
2022-10-11T16:58:00.564Z,18.50
2022-10-11T17:00:27.411Z,18.40
2022-10-11T17:02:54.310Z,18.30
2022-10-11T17:05:21.172Z,18.30
2022-10-11T17:07:48.012Z,18.20
2022-10-11T17:10:14.969Z,18.20
2022-10-11T17:12:45.431Z,18.10
2022-10-11T17:15:16.158Z,18.00
2022-10-11T17:17:42.974Z,18.00
2022-10-11T17:20:09.860Z,17.90
2022-10-11T17:22:36.688Z,17.90
2022-10-11T17:25:03.732Z,17.80
2022-10-11T17:27:30.574Z,17.80
2022-10-11T17:29:57.430Z,17.70
2022-10-11T17:32:24.252Z,17.70
2022-10-11T17:34:51.271Z,17.60
2022-10-11T17:37:18.270Z,17.60
2022-10-11T17:39:45.178Z,17.60
2022-10-11T17:42:12.039Z,17.50
2022-10-11T17:44:38.856Z,17.50
2022-10-11T17:47:05.790Z,17.50
2022-10-11T17:49:32.778Z,17.40
2022-10-11T17:51:59.803Z,17.40
2022-10-11T17:54:26.737Z,17.40
2022-10-11T17:56:54.530Z,17.40
2022-10-11T17:59:21.789Z,17.30
2022-10-11T18:01:50.264Z,17.30
2022-10-11T18:04:19.620Z,17.30
2022-10-11T18:06:47.849Z,17.30
2022-10-11T18:09:16.875Z,17.20
2022-10-11T18:11:44.316Z,17.20
2022-10-11T18:14:11.815Z,17.20
2022-10-11T18:16:39.610Z,17.20
2022-10-11T18:19:12.851Z,17.10
2022-10-11T18:21:40.052Z,17.10
2022-10-11T18:24:14.926Z,17.00
2022-10-11T18:26:43.799Z,16.90
2022-10-11T18:29:12.526Z,16.90
2022-10-11T18:31:41.005Z,16.90
2022-10-11T18:34:10.788Z,16.80
2022-10-11T18:36:38.615Z,16.80
2022-10-11T18:39:07.568Z,16.80
2022-10-11T18:41:35.791Z,16.80
2022-10-11T18:44:06.051Z,16.80
2022-10-11T18:46:33.423Z,16.80
2022-10-11T18:49:03.417Z,16.80
2022-10-11T18:51:35.852Z,16.80
2022-10-11T18:54:03.465Z,16.80
2022-10-11T18:56:32.234Z,16.70
2022-10-11T18:58:59.334Z,16.70
2022-10-11T19:01:30.024Z,16.70
2022-10-11T19:03:58.629Z,16.70
2022-10-11T19:06:28.926Z,16.60
2022-10-11T19:09:04.171Z,16.60
2022-10-11T19:11:31.521Z,16.60
2022-10-11T19:14:06.340Z,16.50
2022-10-11T19:16:38.861Z,16.50
2022-10-11T19:19:06.530Z,16.50
2022-10-11T19:21:33.458Z,16.40
2022-10-11T19:24:00.295Z,16.40
2022-10-11T19:26:33.569Z,16.40
2022-10-11T19:29:13.480Z,16.40
2022-10-11T19:31:46.251Z,16.30
2022-10-11T19:34:13.844Z,16.30
2022-10-11T19:36:42.710Z,16.20
2022-10-11T19:39:14.520Z,16.20
2022-10-11T19:41:42.147Z,16.10
2022-10-11T19:44:09.452Z,16.10
2022-10-11T19:46:53.024Z,16.00
2022-10-11T19:49:24.725Z,16.00
2022-10-11T19:51:52.818Z,15.90
2022-10-11T19:54:19.845Z,15.70
2022-10-11T19:56:47.098Z,15.70
2022-10-11T19:59:15.032Z,15.60
2022-10-11T20:01:42.547Z,15.60
2022-10-11T20:04:27.514Z,15.50
2022-10-11T20:06:58.943Z,15.50
2022-10-11T20:09:30.190Z,15.40
2022-10-11T20:11:57.675Z,15.40
2022-10-11T20:14:24.704Z,15.40
2022-10-11T20:16:51.593Z,15.30
2022-10-11T20:19:18.781Z,15.30
2022-10-11T20:21:45.907Z,15.30
2022-10-11T20:24:12.969Z,15.20
2022-10-11T20:26:40.346Z,15.20
2022-10-11T20:29:07.302Z,15.20
2022-10-11T20:31:38.412Z,15.20
2022-10-11T20:34:07.321Z,15.20
2022-10-11T20:36:36.362Z,15.10
2022-10-11T20:39:04.856Z,15.10
2022-10-11T20:41:37.032Z,15.10
2022-10-11T20:44:04.630Z,15.10
2022-10-11T20:46:37.209Z,15.10
2022-10-11T20:49:09.826Z,15.00
2022-10-11T20:51:38.788Z,15.00
2022-10-11T20:54:06.083Z,15.00
2022-10-11T20:56:33.919Z,14.90
2022-10-11T20:59:01.485Z,14.90
2022-10-11T21:01:33.356Z,14.90
2022-10-11T21:04:01.535Z,14.90
2022-10-11T21:06:29.834Z,14.90
2022-10-11T21:08:59.016Z,14.80
2022-10-11T21:11:27.386Z,14.80
2022-10-11T21:13:59.068Z,14.80
2022-10-11T21:16:44.749Z,14.70
2022-10-11T21:19:14.116Z,14.70
2022-10-11T21:21:41.374Z,14.70
2022-10-11T21:24:08.833Z,14.70
2022-10-11T21:26:35.840Z,14.60
2022-10-11T21:29:04.939Z,14.60
2022-10-11T21:31:34.366Z,14.60
2022-10-11T21:34:02.230Z,14.60
2022-10-11T21:36:29.069Z,14.50
2022-10-11T21:38:56.592Z,14.40
2022-10-11T21:41:30.156Z,14.30
2022-10-11T21:43:57.706Z,14.30
2022-10-11T21:46:54.080Z,14.30
2022-10-11T21:49:16.831Z,14.30
2022-10-11T21:51:43.844Z,14.30
2022-10-11T21:54:10.676Z,14.30
2022-10-11T21:56:37.552Z,14.30
2022-10-11T21:59:06.639Z,14.20
2022-10-11T22:01:39.462Z,14.20
2022-10-11T22:04:09.821Z,14.20
2022-10-11T22:06:37.631Z,14.10
2022-10-11T22:09:05.377Z,14.10
2022-10-11T22:11:32.243Z,14.10
2022-10-11T22:13:59.192Z,14.10
2022-10-11T22:16:26.067Z,14.10
2022-10-11T22:18:56.069Z,14.10
2022-10-11T22:21:23.827Z,14.00
2022-10-11T22:23:52.854Z,14.00
2022-10-11T22:26:25.038Z,14.00
2022-10-11T22:28:53.320Z,13.90
2022-10-11T22:31:22.568Z,13.90
2022-10-11T22:33:53.395Z,13.90
2022-10-11T22:36:20.628Z,13.80
2022-10-11T22:38:47.675Z,13.80
2022-10-11T22:41:14.491Z,13.80
2022-10-11T22:43:41.488Z,13.80
2022-10-11T22:46:08.437Z,13.70
2022-10-11T22:48:35.546Z,13.70
2022-10-11T22:51:02.781Z,13.70
2022-10-11T22:53:30.599Z,13.70
2022-10-11T22:55:57.592Z,13.70
2022-10-11T22:58:24.659Z,13.70
2022-10-11T23:00:51.550Z,13.70
2022-10-11T23:03:19.050Z,13.60
2022-10-11T23:05:57.498Z,13.60
2022-10-11T23:08:25.040Z,13.60
2022-10-11T23:10:52.072Z,13.60
2022-10-11T23:13:19.481Z,13.60
2022-10-11T23:15:46.355Z,13.50
2022-10-11T23:18:14.803Z,13.50
2022-10-11T23:20:41.598Z,13.50
2022-10-11T23:23:08.408Z,13.50
2022-10-11T23:25:35.313Z,13.40
2022-10-11T23:28:02.408Z,13.40
2022-10-11T23:30:30.026Z,13.30
2022-10-11T23:32:56.982Z,13.30
2022-10-11T23:35:24.034Z,13.30
2022-10-11T23:37:52.460Z,13.30
2022-10-11T23:40:19.281Z,13.30
2022-10-11T23:42:46.109Z,13.20
2022-10-11T23:45:12.957Z,13.20
2022-10-11T23:47:40.180Z,13.20
2022-10-11T23:50:08.600Z,13.20
2022-10-11T23:52:35.438Z,13.20
2022-10-11T23:55:02.236Z,13.20
2022-10-11T23:57:29.118Z,13.20
2022-10-11T23:59:55.925Z,13.10
